sensor_id;sensor_type;location;lat;lon;timestamp;temperature;humidity
53264;DHT22;39153;52.680;6.172;2023-04-03T00:00:22;4.20;99.90
53264;DHT22;39153;52.680;6.172;2023-04-03T00:02:48;4.20;99.90
53264;DHT22;39153;52.680;6.172;2023-04-03T00:05:13;4.20;99.90
53264;DHT22;39153;52.680;6.172;2023-04-03T00:07:39;4.50;99.90
53264;DHT22;39153;52.680;6.172;2023-04-03T00:10:06;4.20;99.90
53264;DHT22;39153;52.680;6.172;2023-04-03T00:12:31;4.20;99.90
53264;DHT22;39153;52.680;6.172;2023-04-03T00:14:57;4.20;99.90
53264;DHT22;39153;52.680;6.172;2023-04-03T00:17:23;4.20;99.90
53264;DHT22;39153;52.680;6.172;2023-04-03T00:19:48;4.10;99.90
53264;DHT22;39153;52.680;6.172;2023-04-03T00:22:14;4.10;99.90
53264;DHT22;39153;52.680;6.172;2023-04-03T00:24:40;4.10;99.90
53264;DHT22;39153;52.680;6.172;2023-04-03T00:27:05;4.10;99.90
53264;DHT22;39153;52.680;6.172;2023-04-03T00:29:31;4.10;99.90
53264;DHT22;39153;52.680;6.172;2023-04-03T00:31:57;4.00;99.90
53264;DHT22;39153;52.680;6.172;2023-04-03T00:34:22;4.00;99.90
53264;DHT22;39153;52.680;6.172;2023-04-03T00:36:48;4.00;99.90
53264;DHT22;39153;52.680;6.172;2023-04-03T00:39:13;4.00;99.90
53264;DHT22;39153;52.680;6.172;2023-04-03T00:41:39;3.90;99.90
53264;DHT22;39153;52.680;6.172;2023-04-03T00:45:21;3.90;99.90
53264;DHT22;39153;52.680;6.172;2023-04-03T00:47:08;3.80;99.90
53264;DHT22;39153;52.680;6.172;2023-04-03T00:49:34;3.80;99.90
53264;DHT22;39153;52.680;6.172;2023-04-03T00:52:01;3.80;99.90
53264;DHT22;39153;52.680;6.172;2023-04-03T00:54:27;3.80;99.90
53264;DHT22;39153;52.680;6.172;2023-04-03T00:56:55;3.70;99.90
53264;DHT22;39153;52.680;6.172;2023-04-03T00:59:27;3.70;99.90
53264;DHT22;39153;52.680;6.172;2023-04-03T01:01:57;3.70;99.90
53264;DHT22;39153;52.680;6.172;2023-04-03T01:04:42;3.60;99.90
53264;DHT22;39153;52.680;6.172;2023-04-03T01:07:14;3.60;99.90
53264;DHT22;39153;52.680;6.172;2023-04-03T01:09:41;3.60;99.90
53264;DHT22;39153;52.680;6.172;2023-04-03T01:12:17;3.60;99.90
53264;DHT22;39153;52.680;6.172;2023-04-03T01:14:44;3.70;99.90
53264;DHT22;39153;52.680;6.172;2023-04-03T01:25:50;3.40;99.90
53264;DHT22;39153;52.680;6.172;2023-04-03T01:28:27;3.40;99.90
53264;DHT22;39153;52.680;6.172;2023-04-03T01:33:41;3.30;99.90
53264;DHT22;39153;52.680;6.172;2023-04-03T01:36:07;3.20;99.90
53264;DHT22;39153;52.680;6.172;2023-04-03T01:38:33;3.20;99.90
53264;DHT22;39153;52.680;6.172;2023-04-03T01:40:59;3.10;99.90
53264;DHT22;39153;52.680;6.172;2023-04-03T01:43:25;3.10;99.90
53264;DHT22;39153;52.680;6.172;2023-04-03T01:45:51;3.10;99.90
53264;DHT22;39153;52.680;6.172;2023-04-03T01:48:18;3.10;99.90
53264;DHT22;39153;52.680;6.172;2023-04-03T01:50:44;3.00;99.90
53264;DHT22;39153;52.680;6.172;2023-04-03T01:53:09;3.00;99.90
53264;DHT22;39153;52.680;6.172;2023-04-03T01:55:35;3.00;99.90
53264;DHT22;39153;52.680;6.172;2023-04-03T01:58:00;2.90;99.90
53264;DHT22;39153;52.680;6.172;2023-04-03T02:00:26;2.90;99.90
53264;DHT22;39153;52.680;6.172;2023-04-03T02:02:52;2.90;99.90
53264;DHT22;39153;52.680;6.172;2023-04-03T02:05:18;2.90;99.90
53264;DHT22;39153;52.680;6.172;2023-04-03T02:07:44;2.80;99.90
53264;DHT22;39153;52.680;6.172;2023-04-03T02:10:10;2.80;99.90
53264;DHT22;39153;52.680;6.172;2023-04-03T02:12:36;2.80;99.90
53264;DHT22;39153;52.680;6.172;2023-04-03T02:15:01;2.70;99.90
53264;DHT22;39153;52.680;6.172;2023-04-03T02:17:27;2.70;99.90
53264;DHT22;39153;52.680;6.172;2023-04-03T02:19:53;2.60;99.90
53264;DHT22;39153;52.680;6.172;2023-04-03T02:22:18;2.60;99.90
53264;DHT22;39153;52.680;6.172;2023-04-03T02:24:45;2.60;99.90
53264;DHT22;39153;52.680;6.172;2023-04-03T02:27:11;2.50;99.90
53264;DHT22;39153;52.680;6.172;2023-04-03T02:29:37;2.50;99.90
53264;DHT22;39153;52.680;6.172;2023-04-03T02:32:03;2.50;99.90
53264;DHT22;39153;52.680;6.172;2023-04-03T02:34:28;2.50;99.90
53264;DHT22;39153;52.680;6.172;2023-04-03T02:36:54;2.40;99.90
53264;DHT22;39153;52.680;6.172;2023-04-03T02:39:20;2.70;99.90
53264;DHT22;39153;52.680;6.172;2023-04-03T02:41:46;2.40;99.90
53264;DHT22;39153;52.680;6.172;2023-04-03T02:44:12;2.40;99.90
53264;DHT22;39153;52.680;6.172;2023-04-03T02:46:37;2.30;99.90
53264;DHT22;39153;52.680;6.172;2023-04-03T02:49:03;2.30;99.90
53264;DHT22;39153;52.680;6.172;2023-04-03T02:51:29;2.30;99.90
53264;DHT22;39153;52.680;6.172;2023-04-03T02:53:55;2.30;99.90
53264;DHT22;39153;52.680;6.172;2023-04-03T02:56:21;2.20;99.90
53264;DHT22;39153;52.680;6.172;2023-04-03T02:58:47;2.20;99.90
53264;DHT22;39153;52.680;6.172;2023-04-03T03:01:13;2.20;99.90
53264;DHT22;39153;52.680;6.172;2023-04-03T03:03:39;2.10;99.90
53264;DHT22;39153;52.680;6.172;2023-04-03T03:06:10;2.10;99.90
53264;DHT22;39153;52.680;6.172;2023-04-03T03:08:37;2.10;99.90
53264;DHT22;39153;52.680;6.172;2023-04-03T03:11:03;2.50;99.90
53264;DHT22;39153;52.680;6.172;2023-04-03T03:13:30;2.10;99.90
53264;DHT22;39153;52.680;6.172;2023-04-03T03:15:56;2.00;99.90
53264;DHT22;39153;52.680;6.172;2023-04-03T03:18:22;2.00;99.90
53264;DHT22;39153;52.680;6.172;2023-04-03T03:20:55;1.90;99.90
53264;DHT22;39153;52.680;6.172;2023-04-03T03:23:22;2.00;99.90
53264;DHT22;39153;52.680;6.172;2023-04-03T03:25:48;2.00;99.90
53264;DHT22;39153;52.680;6.172;2023-04-03T03:28:14;1.90;99.90
53264;DHT22;39153;52.680;6.172;2023-04-03T03:30:40;1.90;99.90
53264;DHT22;39153;52.680;6.172;2023-04-03T03:33:05;1.90;99.90
53264;DHT22;39153;52.680;6.172;2023-04-03T03:35:32;1.90;99.90
53264;DHT22;39153;52.680;6.172;2023-04-03T03:37:58;1.90;99.90
53264;DHT22;39153;52.680;6.172;2023-04-03T03:40:23;1.90;99.90
53264;DHT22;39153;52.680;6.172;2023-04-03T03:42:49;1.80;99.90
53264;DHT22;39153;52.680;6.172;2023-04-03T03:45:15;1.80;99.90
53264;DHT22;39153;52.680;6.172;2023-04-03T03:47:41;1.80;99.90
53264;DHT22;39153;52.680;6.172;2023-04-03T03:50:07;1.80;99.90
53264;DHT22;39153;52.680;6.172;2023-04-03T03:52:33;1.70;99.90
53264;DHT22;39153;52.680;6.172;2023-04-03T03:54:58;1.70;99.90
53264;DHT22;39153;52.680;6.172;2023-04-03T03:57:24;1.70;99.90
53264;DHT22;39153;52.680;6.172;2023-04-03T03:59:52;1.70;99.90
53264;DHT22;39153;52.680;6.172;2023-04-03T04:02:18;1.60;99.90
53264;DHT22;39153;52.680;6.172;2023-04-03T04:04:43;1.60;99.90
53264;DHT22;39153;52.680;6.172;2023-04-03T04:07:09;1.60;99.90
53264;DHT22;39153;52.680;6.172;2023-04-03T04:09:35;1.60;99.90
53264;DHT22;39153;52.680;6.172;2023-04-03T04:12:00;1.60;99.90
53264;DHT22;39153;52.680;6.172;2023-04-03T04:14:26;1.50;99.90
53264;DHT22;39153;52.680;6.172;2023-04-03T04:16:52;1.50;99.90
53264;DHT22;39153;52.680;6.172;2023-04-03T04:19:18;1.50;99.90
53264;DHT22;39153;52.680;6.172;2023-04-03T04:21:43;1.50;99.90
53264;DHT22;39153;52.680;6.172;2023-04-03T04:24:09;1.40;99.90
53264;DHT22;39153;52.680;6.172;2023-04-03T04:26:35;1.40;99.90
53264;DHT22;39153;52.680;6.172;2023-04-03T04:29:00;1.30;99.90
53264;DHT22;39153;52.680;6.172;2023-04-03T04:31:26;1.30;99.90
53264;DHT22;39153;52.680;6.172;2023-04-03T04:33:52;1.30;99.90
53264;DHT22;39153;52.680;6.172;2023-04-03T04:36:18;1.20;99.90
53264;DHT22;39153;52.680;6.172;2023-04-03T04:38:44;1.20;99.90
53264;DHT22;39153;52.680;6.172;2023-04-03T04:41:10;1.20;99.90
53264;DHT22;39153;52.680;6.172;2023-04-03T04:43:35;1.10;99.90
53264;DHT22;39153;52.680;6.172;2023-04-03T04:46:06;1.10;99.90
53264;DHT22;39153;52.680;6.172;2023-04-03T04:48:32;1.10;99.90
53264;DHT22;39153;52.680;6.172;2023-04-03T04:50:58;1.10;99.90
53264;DHT22;39153;52.680;6.172;2023-04-03T04:53:24;1.10;99.90
53264;DHT22;39153;52.680;6.172;2023-04-03T04:55:51;1.00;99.90
53264;DHT22;39153;52.680;6.172;2023-04-03T04:58:17;1.00;99.90
53264;DHT22;39153;52.680;6.172;2023-04-03T05:00:43;1.10;99.90
53264;DHT22;39153;52.680;6.172;2023-04-03T05:03:09;1.00;99.90
53264;DHT22;39153;52.680;6.172;2023-04-03T05:05:34;0.90;99.90
53264;DHT22;39153;52.680;6.172;2023-04-03T05:08:01;0.90;99.90
53264;DHT22;39153;52.680;6.172;2023-04-03T05:10:27;0.90;99.90
53264;DHT22;39153;52.680;6.172;2023-04-03T05:12:53;0.80;99.90
53264;DHT22;39153;52.680;6.172;2023-04-03T05:15:19;0.80;99.90
53264;DHT22;39153;52.680;6.172;2023-04-03T05:17:44;0.80;99.90
53264;DHT22;39153;52.680;6.172;2023-04-03T05:20:10;0.70;99.90
53264;DHT22;39153;52.680;6.172;2023-04-03T05:22:36;0.80;99.90
53264;DHT22;39153;52.680;6.172;2023-04-03T05:25:02;0.70;99.90
53264;DHT22;39153;52.680;6.172;2023-04-03T05:27:28;0.70;99.90
53264;DHT22;39153;52.680;6.172;2023-04-03T05:29:54;0.70;99.90
53264;DHT22;39153;52.680;6.172;2023-04-03T05:32:21;0.70;99.90
53264;DHT22;39153;52.680;6.172;2023-04-03T05:34:47;0.60;99.90
53264;DHT22;39153;52.680;6.172;2023-04-03T05:37:13;0.60;99.90
53264;DHT22;39153;52.680;6.172;2023-04-03T05:39:38;0.60;99.90
53264;DHT22;39153;52.680;6.172;2023-04-03T05:42:06;0.60;99.90
53264;DHT22;39153;52.680;6.172;2023-04-03T05:44:32;0.60;99.90
53264;DHT22;39153;52.680;6.172;2023-04-03T05:46:58;0.70;99.90
53264;DHT22;39153;52.680;6.172;2023-04-03T05:49:24;0.60;99.90
53264;DHT22;39153;52.680;6.172;2023-04-03T05:51:50;0.70;99.90
53264;DHT22;39153;52.680;6.172;2023-04-03T05:54:27;0.70;99.90
53264;DHT22;39153;52.680;6.172;2023-04-03T05:56:53;0.70;99.90
53264;DHT22;39153;52.680;6.172;2023-04-03T05:59:19;0.70;99.90
53264;DHT22;39153;52.680;6.172;2023-04-03T06:01:45;0.80;99.90
53264;DHT22;39153;52.680;6.172;2023-04-03T06:04:12;0.90;99.90
53264;DHT22;39153;52.680;6.172;2023-04-03T06:06:53;0.90;99.90
53264;DHT22;39153;52.680;6.172;2023-04-03T06:09:24;1.00;99.90
53264;DHT22;39153;52.680;6.172;2023-04-03T06:11:50;1.00;99.90
53264;DHT22;39153;52.680;6.172;2023-04-03T06:14:16;1.20;99.90
53264;DHT22;39153;52.680;6.172;2023-04-03T06:16:42;1.20;99.90
53264;DHT22;39153;52.680;6.172;2023-04-03T06:19:09;1.20;99.90
53264;DHT22;39153;52.680;6.172;2023-04-03T06:21:35;1.30;99.90
53264;DHT22;39153;52.680;6.172;2023-04-03T06:24:02;1.30;99.90
53264;DHT22;39153;52.680;6.172;2023-04-03T06:26:28;1.30;99.90
53264;DHT22;39153;52.680;6.172;2023-04-03T06:28:54;1.40;99.90
53264;DHT22;39153;52.680;6.172;2023-04-03T06:31:20;1.40;99.90
53264;DHT22;39153;52.680;6.172;2023-04-03T06:33:45;1.50;99.90
53264;DHT22;39153;52.680;6.172;2023-04-03T06:36:12;1.50;99.90
53264;DHT22;39153;52.680;6.172;2023-04-03T06:38:38;1.60;99.90
53264;DHT22;39153;52.680;6.172;2023-04-03T06:41:04;1.70;99.90
53264;DHT22;39153;52.680;6.172;2023-04-03T06:43:30;1.60;99.90
53264;DHT22;39153;52.680;6.172;2023-04-03T06:45:57;1.70;99.90
53264;DHT22;39153;52.680;6.172;2023-04-03T06:48:22;1.70;99.90
53264;DHT22;39153;52.680;6.172;2023-04-03T06:50:48;1.80;99.90
53264;DHT22;39153;52.680;6.172;2023-04-03T06:53:14;1.80;99.90
53264;DHT22;39153;52.680;6.172;2023-04-03T06:55:40;1.90;99.90
53264;DHT22;39153;52.680;6.172;2023-04-03T06:58:06;1.90;99.90
53264;DHT22;39153;52.680;6.172;2023-04-03T07:00:32;2.00;99.90
53264;DHT22;39153;52.680;6.172;2023-04-03T07:02:58;2.00;99.90
53264;DHT22;39153;52.680;6.172;2023-04-03T07:05:24;2.10;99.90
53264;DHT22;39153;52.680;6.172;2023-04-03T07:07:50;2.20;99.90
53264;DHT22;39153;52.680;6.172;2023-04-03T07:10:17;2.20;99.90
53264;DHT22;39153;52.680;6.172;2023-04-03T07:12:43;2.30;99.90
53264;DHT22;39153;52.680;6.172;2023-04-03T07:15:09;2.30;99.90
53264;DHT22;39153;52.680;6.172;2023-04-03T07:17:35;2.40;99.90
53264;DHT22;39153;52.680;6.172;2023-04-03T07:20:02;2.40;99.90
53264;DHT22;39153;52.680;6.172;2023-04-03T07:22:29;2.50;99.90
53264;DHT22;39153;52.680;6.172;2023-04-03T07:24:55;2.60;99.90
53264;DHT22;39153;52.680;6.172;2023-04-03T07:27:21;2.60;99.90
53264;DHT22;39153;52.680;6.172;2023-04-03T07:29:46;2.70;99.90
53264;DHT22;39153;52.680;6.172;2023-04-03T07:32:14;2.90;99.90
53264;DHT22;39153;52.680;6.172;2023-04-03T07:34:41;2.80;99.90
53264;DHT22;39153;52.680;6.172;2023-04-03T07:37:07;2.80;99.90
53264;DHT22;39153;52.680;6.172;2023-04-03T07:39:34;2.30;99.90
53264;DHT22;39153;52.680;6.172;2023-04-03T07:42:00;3.00;99.90
53264;DHT22;39153;52.680;6.172;2023-04-03T07:44:27;3.00;99.90
53264;DHT22;39153;52.680;6.172;2023-04-03T07:46:53;3.10;99.90
53264;DHT22;39153;52.680;6.172;2023-04-03T07:49:18;3.10;99.90
53264;DHT22;39153;52.680;6.172;2023-04-03T07:51:44;3.30;99.90
53264;DHT22;39153;52.680;6.172;2023-04-03T07:54:10;3.30;99.90
53264;DHT22;39153;52.680;6.172;2023-04-03T07:56:36;3.50;99.90
53264;DHT22;39153;52.680;6.172;2023-04-03T07:59:02;4.20;99.90
53264;DHT22;39153;52.680;6.172;2023-04-03T08:01:28;3.60;99.90
53264;DHT22;39153;52.680;6.172;2023-04-03T08:03:54;3.70;99.90
53264;DHT22;39153;52.680;6.172;2023-04-03T08:06:19;3.80;99.90
53264;DHT22;39153;52.680;6.172;2023-04-03T08:08:45;3.80;99.90
53264;DHT22;39153;52.680;6.172;2023-04-03T08:11:11;3.90;99.90
53264;DHT22;39153;52.680;6.172;2023-04-03T08:13:37;4.00;99.90
53264;DHT22;39153;52.680;6.172;2023-04-03T08:16:11;4.10;99.90
53264;DHT22;39153;52.680;6.172;2023-04-03T08:18:37;4.20;99.90
53264;DHT22;39153;52.680;6.172;2023-04-03T08:21:11;4.30;99.90
53264;DHT22;39153;52.680;6.172;2023-04-03T08:23:38;4.30;99.90
53264;DHT22;39153;52.680;6.172;2023-04-03T08:26:13;5.10;99.90
53264;DHT22;39153;52.680;6.172;2023-04-03T08:28:39;4.50;99.90
53264;DHT22;39153;52.680;6.172;2023-04-03T08:31:08;4.50;99.90
53264;DHT22;39153;52.680;6.172;2023-04-03T08:33:36;4.60;99.90
53264;DHT22;39153;52.680;6.172;2023-04-03T08:36:07;4.70;99.90
53264;DHT22;39153;52.680;6.172;2023-04-03T08:38:34;4.80;99.90
53264;DHT22;39153;52.680;6.172;2023-04-03T08:41:35;4.80;99.90
53264;DHT22;39153;52.680;6.172;2023-04-03T08:47:04;5.10;99.90
53264;DHT22;39153;52.680;6.172;2023-04-03T08:50:07;5.20;99.90
53264;DHT22;39153;52.680;6.172;2023-04-03T08:52:39;5.30;99.90
53264;DHT22;39153;52.680;6.172;2023-04-03T08:55:20;5.70;99.90
53264;DHT22;39153;52.680;6.172;2023-04-03T08:57:48;5.50;99.90
53264;DHT22;39153;52.680;6.172;2023-04-03T09:00:19;5.90;99.90
53264;DHT22;39153;52.680;6.172;2023-04-03T09:02:47;5.70;99.90
53264;DHT22;39153;52.680;6.172;2023-04-03T09:05:16;5.90;99.90
53264;DHT22;39153;52.680;6.172;2023-04-03T09:07:44;6.00;99.90
53264;DHT22;39153;52.680;6.172;2023-04-03T09:10:13;6.10;99.90
53264;DHT22;39153;52.680;6.172;2023-04-03T09:12:43;6.20;99.90
53264;DHT22;39153;52.680;6.172;2023-04-03T09:15:16;6.60;99.90
53264;DHT22;39153;52.680;6.172;2023-04-03T09:20:43;6.60;99.90
53264;DHT22;39153;52.680;6.172;2023-04-03T09:23:24;7.00;99.90
53264;DHT22;39153;52.680;6.172;2023-04-03T09:26:00;6.90;99.90
53264;DHT22;39153;52.680;6.172;2023-04-03T09:28:27;6.90;99.90
53264;DHT22;39153;52.680;6.172;2023-04-03T09:30:55;7.00;99.90
53264;DHT22;39153;52.680;6.172;2023-04-03T09:33:21;7.10;99.90
53264;DHT22;39153;52.680;6.172;2023-04-03T09:35:48;7.20;99.90
53264;DHT22;39153;52.680;6.172;2023-04-03T09:38:21;7.30;99.90
53264;DHT22;39153;52.680;6.172;2023-04-03T09:41:15;7.40;99.90
53264;DHT22;39153;52.680;6.172;2023-04-03T09:43:51;7.50;99.90
53264;DHT22;39153;52.680;6.172;2023-04-03T09:46:32;7.60;99.90
53264;DHT22;39153;52.680;6.172;2023-04-03T09:49:03;7.70;99.90
53264;DHT22;39153;52.680;6.172;2023-04-03T09:51:30;7.70;99.90
53264;DHT22;39153;52.680;6.172;2023-04-03T09:53:57;7.70;99.90
53264;DHT22;39153;52.680;6.172;2023-04-03T09:56:24;7.70;99.90
53264;DHT22;39153;52.680;6.172;2023-04-03T09:59:07;7.80;99.90
53264;DHT22;39153;52.680;6.172;2023-04-03T10:01:36;7.90;99.90
53264;DHT22;39153;52.680;6.172;2023-04-03T10:04:16;7.90;99.90
53264;DHT22;39153;52.680;6.172;2023-04-03T10:06:54;7.70;98.80
53264;DHT22;39153;52.680;6.172;2023-04-03T10:09:22;7.70;98.90
53264;DHT22;39153;52.680;6.172;2023-04-03T10:12:07;7.60;98.80
53264;DHT22;39153;52.680;6.172;2023-04-03T10:14:38;7.70;97.80
53264;DHT22;39153;52.680;6.172;2023-04-03T10:17:48;7.70;98.90
53264;DHT22;39153;52.680;6.172;2023-04-03T10:20:32;7.80;98.00
53264;DHT22;39153;52.680;6.172;2023-04-03T10:23:19;7.90;98.70
53264;DHT22;39153;52.680;6.172;2023-04-03T10:26:05;8.00;97.90
53264;DHT22;39153;52.680;6.172;2023-04-03T10:28:48;8.10;98.30
53264;DHT22;39153;52.680;6.172;2023-04-03T10:31:43;8.10;98.60
53264;DHT22;39153;52.680;6.172;2023-04-03T10:34:35;8.10;98.90
53264;DHT22;39153;52.680;6.172;2023-04-03T10:37:20;8.20;99.10
53264;DHT22;39153;52.680;6.172;2023-04-03T10:39:52;8.40;98.80
53264;DHT22;39153;52.680;6.172;2023-04-03T10:42:39;8.50;97.90
53264;DHT22;39153;52.680;6.172;2023-04-03T10:57:55;9.10;99.30
53264;DHT22;39153;52.680;6.172;2023-04-03T11:00:43;9.20;99.00
53264;DHT22;39153;52.680;6.172;2023-04-03T11:03:17;9.30;98.50
53264;DHT22;39153;52.680;6.172;2023-04-03T11:05:51;9.50;99.00
53264;DHT22;39153;52.680;6.172;2023-04-03T11:08:25;9.50;98.60
53264;DHT22;39153;52.680;6.172;2023-04-03T11:10:55;9.50;97.40
53264;DHT22;39153;52.680;6.172;2023-04-03T11:13:31;9.50;97.70
53264;DHT22;39153;52.680;6.172;2023-04-03T11:15:58;9.60;97.70
53264;DHT22;39153;52.680;6.172;2023-04-03T11:23:40;10.10;97.10
53264;DHT22;39153;52.680;6.172;2023-04-03T11:26:12;10.30;97.40
53264;DHT22;39153;52.680;6.172;2023-04-03T11:28:39;10.40;97.10
53264;DHT22;39153;52.680;6.172;2023-04-03T11:31:29;10.60;97.30
53264;DHT22;39153;52.680;6.172;2023-04-03T11:36:58;10.90;96.50
53264;DHT22;39153;52.680;6.172;2023-04-03T11:39:32;11.00;94.70
53264;DHT22;39153;52.680;6.172;2023-04-03T11:42:39;11.00;96.00
53264;DHT22;39153;52.680;6.172;2023-04-03T11:48:01;11.10;95.50
53264;DHT22;39153;52.680;6.172;2023-04-03T11:50:42;11.10;94.70
53264;DHT22;39153;52.680;6.172;2023-04-03T12:08:47;11.80;94.50
53264;DHT22;39153;52.680;6.172;2023-04-03T12:11:28;11.80;93.20
53264;DHT22;39153;52.680;6.172;2023-04-03T12:16:21;11.80;94.00
53264;DHT22;39153;52.680;6.172;2023-04-03T12:32:35;12.70;92.80
53264;DHT22;39153;52.680;6.172;2023-04-03T12:35:34;12.80;92.40
53264;DHT22;39153;52.680;6.172;2023-04-03T12:38:22;12.90;92.30
53264;DHT22;39153;52.680;6.172;2023-04-03T12:46:48;13.30;91.50
53264;DHT22;39153;52.680;6.172;2023-04-03T12:49:37;13.20;91.60
53264;DHT22;39153;52.680;6.172;2023-04-03T12:54:52;13.40;90.80
53264;DHT22;39153;52.680;6.172;2023-04-03T12:57:29;13.40;92.00
53264;DHT22;39153;52.680;6.172;2023-04-03T12:59:55;13.50;91.90
53264;DHT22;39153;52.680;6.172;2023-04-03T13:02:29;13.60;91.50
53264;DHT22;39153;52.680;6.172;2023-04-03T13:05:04;13.60;91.30
53264;DHT22;39153;52.680;6.172;2023-04-03T13:07:33;13.70;91.20
53264;DHT22;39153;52.680;6.172;2023-04-03T13:10:15;13.90;91.20
53264;DHT22;39153;52.680;6.172;2023-04-03T13:13:08;14.00;89.80
53264;DHT22;39153;52.680;6.172;2023-04-03T13:15:47;14.00;90.00
53264;DHT22;39153;52.680;6.172;2023-04-03T13:18:25;14.00;89.90
53264;DHT22;39153;52.680;6.172;2023-04-03T13:20:51;14.10;89.30
53264;DHT22;39153;52.680;6.172;2023-04-03T13:23:20;14.10;89.70
53264;DHT22;39153;52.680;6.172;2023-04-03T13:25:47;14.10;89.00
53264;DHT22;39153;52.680;6.172;2023-04-03T13:28:16;14.00;89.60
53264;DHT22;39153;52.680;6.172;2023-04-03T13:31:01;14.10;89.90
53264;DHT22;39153;52.680;6.172;2023-04-03T13:33:28;14.30;88.90
53264;DHT22;39153;52.680;6.172;2023-04-03T13:36:06;14.40;89.00
53264;DHT22;39153;52.680;6.172;2023-04-03T13:38:33;14.50;90.30
53264;DHT22;39153;52.680;6.172;2023-04-03T13:41:02;14.70;89.60
53264;DHT22;39153;52.680;6.172;2023-04-03T13:43:36;14.90;89.50
53264;DHT22;39153;52.680;6.172;2023-04-03T13:46:20;15.00;88.50
53264;DHT22;39153;52.680;6.172;2023-04-03T13:48:50;15.00;88.60
53264;DHT22;39153;52.680;6.172;2023-04-03T13:51:28;15.10;87.90
53264;DHT22;39153;52.680;6.172;2023-04-03T13:54:00;15.10;87.70
53264;DHT22;39153;52.680;6.172;2023-04-03T13:56:36;15.10;86.10
53264;DHT22;39153;52.680;6.172;2023-04-03T14:04:27;14.90;84.50
53264;DHT22;39153;52.680;6.172;2023-04-03T14:06:54;14.80;85.40
53264;DHT22;39153;52.680;6.172;2023-04-03T14:09:21;14.80;86.30
53264;DHT22;39153;52.680;6.172;2023-04-03T14:11:49;15.00;87.50
53264;DHT22;39153;52.680;6.172;2023-04-03T14:14:19;15.20;87.40
53264;DHT22;39153;52.680;6.172;2023-04-03T14:16:50;15.20;85.40
53264;DHT22;39153;52.680;6.172;2023-04-03T14:19:21;15.30;86.00
53264;DHT22;39153;52.680;6.172;2023-04-03T14:21:48;15.30;85.50
53264;DHT22;39153;52.680;6.172;2023-04-03T14:24:16;15.30;84.40
53264;DHT22;39153;52.680;6.172;2023-04-03T14:26:42;15.20;83.20
53264;DHT22;39153;52.680;6.172;2023-04-03T14:29:10;15.10;83.70
53264;DHT22;39153;52.680;6.172;2023-04-03T14:31:36;15.20;84.30
53264;DHT22;39153;52.680;6.172;2023-04-03T14:34:02;15.40;85.20
53264;DHT22;39153;52.680;6.172;2023-04-03T14:36:28;15.60;85.60
53264;DHT22;39153;52.680;6.172;2023-04-03T14:38:55;15.70;84.30
53264;DHT22;39153;52.680;6.172;2023-04-03T14:41:24;15.70;84.30
53264;DHT22;39153;52.680;6.172;2023-04-03T14:43:51;15.90;84.50
53264;DHT22;39153;52.680;6.172;2023-04-03T14:46:29;15.90;83.60
53264;DHT22;39153;52.680;6.172;2023-04-03T14:48:57;15.90;83.40
53264;DHT22;39153;52.680;6.172;2023-04-03T14:51:23;16.00;83.90
53264;DHT22;39153;52.680;6.172;2023-04-03T14:53:49;15.80;83.00
53264;DHT22;39153;52.680;6.172;2023-04-03T14:56:23;15.80;83.50
53264;DHT22;39153;52.680;6.172;2023-04-03T14:58:58;15.90;83.40
53264;DHT22;39153;52.680;6.172;2023-04-03T15:01:24;16.10;83.20
53264;DHT22;39153;52.680;6.172;2023-04-03T15:03:50;16.20;84.00
53264;DHT22;39153;52.680;6.172;2023-04-03T15:06:16;16.20;83.30
53264;DHT22;39153;52.680;6.172;2023-04-03T15:08:43;16.20;83.10
53264;DHT22;39153;52.680;6.172;2023-04-03T15:11:10;16.10;83.10
53264;DHT22;39153;52.680;6.172;2023-04-03T15:13:36;16.10;84.40
53264;DHT22;39153;52.680;6.172;2023-04-03T15:16:02;16.10;82.60
53264;DHT22;39153;52.680;6.172;2023-04-03T15:18:37;16.20;82.90
53264;DHT22;39153;52.680;6.172;2023-04-03T15:21:03;16.30;83.10
53264;DHT22;39153;52.680;6.172;2023-04-03T15:23:29;16.40;82.30
53264;DHT22;39153;52.680;6.172;2023-04-03T15:25:55;16.50;82.60
53264;DHT22;39153;52.680;6.172;2023-04-03T15:28:35;16.50;81.40
53264;DHT22;39153;52.680;6.172;2023-04-03T15:31:02;16.40;80.70
53264;DHT22;39153;52.680;6.172;2023-04-03T15:33:28;16.40;82.90
53264;DHT22;39153;52.680;6.172;2023-04-03T15:35:54;16.50;82.00
53264;DHT22;39153;52.680;6.172;2023-04-03T15:38:20;16.60;81.40
53264;DHT22;39153;52.680;6.172;2023-04-03T15:40:46;16.70;82.20
53264;DHT22;39153;52.680;6.172;2023-04-03T15:43:13;16.80;82.00
53264;DHT22;39153;52.680;6.172;2023-04-03T15:45:39;16.80;81.20
53264;DHT22;39153;52.680;6.172;2023-04-03T15:48:06;16.90;81.70
53264;DHT22;39153;52.680;6.172;2023-04-03T15:50:33;17.00;81.40
53264;DHT22;39153;52.680;6.172;2023-04-03T15:52:59;17.00;81.20
53264;DHT22;39153;52.680;6.172;2023-04-03T15:55:28;16.90;79.90
53264;DHT22;39153;52.680;6.172;2023-04-03T15:57:54;16.90;79.80
53264;DHT22;39153;52.680;6.172;2023-04-03T16:00:22;16.90;79.80
53264;DHT22;39153;52.680;6.172;2023-04-03T16:02:49;17.00;80.90
53264;DHT22;39153;52.680;6.172;2023-04-03T16:05:17;17.10;80.60
53264;DHT22;39153;52.680;6.172;2023-04-03T16:07:44;17.20;80.40
53264;DHT22;39153;52.680;6.172;2023-04-03T16:10:11;17.20;79.50
53264;DHT22;39153;52.680;6.172;2023-04-03T16:12:37;17.20;79.60
53264;DHT22;39153;52.680;6.172;2023-04-03T16:15:03;17.30;79.20
53264;DHT22;39153;52.680;6.172;2023-04-03T16:17:29;17.30;78.60
53264;DHT22;39153;52.680;6.172;2023-04-03T16:19:56;17.30;78.50
53264;DHT22;39153;52.680;6.172;2023-04-03T16:22:26;17.20;77.60
53264;DHT22;39153;52.680;6.172;2023-04-03T16:24:53;17.10;77.50
53264;DHT22;39153;52.680;6.172;2023-04-03T16:27:19;17.10;77.90
53264;DHT22;39153;52.680;6.172;2023-04-03T16:29:45;17.10;77.60
53264;DHT22;39153;52.680;6.172;2023-04-03T16:32:11;17.20;77.60
53264;DHT22;39153;52.680;6.172;2023-04-03T16:34:38;17.30;77.10
53264;DHT22;39153;52.680;6.172;2023-04-03T16:37:06;17.30;76.80
53264;DHT22;39153;52.680;6.172;2023-04-03T16:39:34;17.30;76.60
53264;DHT22;39153;52.680;6.172;2023-04-03T16:42:00;17.30;76.00
53264;DHT22;39153;52.680;6.172;2023-04-03T16:44:26;17.30;76.70
53264;DHT22;39153;52.680;6.172;2023-04-03T16:46:52;17.40;76.40
53264;DHT22;39153;52.680;6.172;2023-04-03T16:49:18;17.30;75.70
53264;DHT22;39153;52.680;6.172;2023-04-03T16:51:43;17.40;75.80
53264;DHT22;39153;52.680;6.172;2023-04-03T16:54:09;17.40;76.00
53264;DHT22;39153;52.680;6.172;2023-04-03T16:56:36;17.50;75.50
53264;DHT22;39153;52.680;6.172;2023-04-03T16:59:02;17.40;75.00
53264;DHT22;39153;52.680;6.172;2023-04-03T17:01:28;17.30;74.60
53264;DHT22;39153;52.680;6.172;2023-04-03T17:03:54;17.30;74.70
53264;DHT22;39153;52.680;6.172;2023-04-03T17:06:21;17.20;74.30
53264;DHT22;39153;52.680;6.172;2023-04-03T17:08:49;17.10;74.20
53264;DHT22;39153;52.680;6.172;2023-04-03T17:11:17;17.00;74.00
53264;DHT22;39153;52.680;6.172;2023-04-03T17:13:43;16.90;74.60
53264;DHT22;39153;52.680;6.172;2023-04-03T17:16:12;16.70;74.70
53264;DHT22;39153;52.680;6.172;2023-04-03T17:18:38;16.30;73.90